Time;durP1;ratioP1;P1;durP2;ratioP2;P2;SDS_P1;SDS_P2;PMS_P1;PMS_P2;Temp;Humidity;BMP_temperature;BMP_pressure;BME280_temperature;BME280_humidity;BME280_pressure;Samples;Min_cycle;Max_cycle;Signal;HPM_P1;HPM_P2
2024/03/04 00:02:32;;;;;;;;;;;;;;;20.81;54.13;99924.48;2333761;76;50899;-79
2024/03/04 00:05:37;;;;;;;;;;;;;;;20.81;54.10;99929.86;2333779;76;50588;-79
2024/03/04 00:08:38;;;;;;;;;;;;;;;20.80;54.03;99928.19;2343191;75;52351;-80
2024/03/04 00:11:40;;;;;;;;;;;;;;;20.80;54.00;99926.84;2334019;76;51404;-78
2024/03/04 00:14:42;;;;;;;;;;;;;;;20.80;54.02;99933.56;2334197;76;50667;-79
2024/03/04 00:17:44;;;;;;;;;;;;;;;20.79;53.99;99926.03;2333904;76;51518;-79
2024/03/04 00:20:45;;;;;;;;;;;;;;;20.79;53.99;99927.38;2316503;76;51441;-79
2024/03/04 00:23:47;;;;;;;;;;;;;;;20.80;53.98;99932.22;2343382;75;50693;-79
2024/03/04 00:26:48;;;;;;;;;;;;;;;20.79;53.97;99934.63;2333770;76;50684;-79
2024/03/04 00:29:50;;;;;;;;;;;;;;;20.78;53.94;99935.14;2333910;75;51384;-79
2024/03/04 00:32:51;;;;;;;;;;;;;;;20.79;53.93;99934.63;2316928;76;50859;-78
2024/03/04 00:35:53;;;;;;;;;;;;;;;20.80;53.89;99940.29;2339524;76;51467;-79
2024/03/04 00:38:55;;;;;;;;;;;;;;;20.79;53.86;99938.13;2339985;76;51466;-79
2024/03/04 00:41:58;;;;;;;;;;;;;;;20.79;53.84;99930.59;2339946;76;51517;-79
2024/03/04 00:45:00;;;;;;;;;;;;;;;20.79;53.86;99931.41;2343671;75;49594;-79
2024/03/04 00:48:02;;;;;;;;;;;;;;;20.79;53.84;99933.27;2343492;75;51525;-79
2024/03/04 00:51:04;;;;;;;;;;;;;;;20.79;53.82;99930.59;2343701;75;50242;-79
2024/03/04 00:54:05;;;;;;;;;;;;;;;20.78;53.77;99935.14;2343580;75;51385;-79
2024/03/04 00:57:07;;;;;;;;;;;;;;;20.80;53.77;99944.32;2343432;75;52174;-79
2024/03/04 01:00:09;;;;;;;;;;;;;;;20.79;53.69;99944.03;2343439;75;49534;-78
2024/03/04 01:03:10;;;;;;;;;;;;;;;20.79;53.64;99944.84;2339345;76;50271;-78
2024/03/04 01:06:12;;;;;;;;;;;;;;;20.78;53.64;99954.45;2339428;76;50259;-79
2024/03/04 01:09:14;;;;;;;;;;;;;;;20.79;53.60;99948.88;2343591;75;50059;-77
2024/03/04 01:12:15;;;;;;;;;;;;;;;20.78;53.57;99949.93;2339279;76;50341;-79
2024/03/04 01:15:17;;;;;;;;;;;;;;;20.79;53.58;99950.75;2343496;75;50693;-79
2024/03/04 01:18:20;;;;;;;;;;;;;;;20.79;53.58;99957.47;2339467;76;51468;-79
2024/03/04 01:21:22;;;;;;;;;;;;;;;20.79;53.57;99953.44;2343523;75;49497;-79
2024/03/04 01:24:24;;;;;;;;;;;;;;;20.80;53.55;99955.08;2339467;76;51448;-78
2024/03/04 01:27:26;;;;;;;;;;;;;;;20.80;53.55;99953.20;2339424;76;51553;-78
2024/03/04 01:30:27;;;;;;;;;;;;;;;20.80;53.54;99949.70;2339387;74;50565;-79
2024/03/04 01:33:29;;;;;;;;;;;;;;;20.79;53.53;99954.26;2343528;75;49958;-78
2024/03/04 01:36:31;;;;;;;;;;;;;;;20.78;53.48;99951.28;2339305;76;50215;-78
2024/03/04 01:39:33;;;;;;;;;;;;;;;20.78;53.49;99953.12;2339082;76;51435;-79
2024/03/04 01:42:35;;;;;;;;;;;;;;;20.79;53.50;99958.81;2339055;75;51494;-79
2024/03/04 01:45:36;;;;;;;;;;;;;;;20.80;53.69;99958.58;2343607;75;49561;-79
2024/03/04 01:48:38;;;;;;;;;;;;;;;20.81;53.76;99960.78;2344637;75;50455;-79
2024/03/04 01:51:40;;;;;;;;;;;;;;;20.81;53.71;99959.44;2339939;74;50701;-79
2024/03/04 01:54:42;;;;;;;;;;;;;;;20.82;53.68;99962.41;2339360;74;50803;-80
2024/03/04 01:57:43;;;;;;;;;;;;;;;20.81;53.73;99962.13;2343261;75;51113;-80
2024/03/04 02:00:46;;;;;;;;;;;;;;;20.80;53.77;99959.11;2339172;75;50676;-80
2024/03/04 02:03:48;;;;;;;;;;;;;;;20.80;53.75;99958.58;2343217;75;50387;-79
2024/03/04 02:06:50;;;;;;;;;;;;;;;20.80;53.77;99967.17;2338864;76;50811;-80
2024/03/04 02:09:52;;;;;;;;;;;;;;;20.81;53.73;99962.13;2343197;75;52379;-77
2024/03/04 02:12:54;;;;;;;;;;;;;;;20.79;53.76;99963.67;2339117;76;51085;-80
2024/03/04 02:15:56;;;;;;;;;;;;;;;20.78;53.74;99960.69;2339088;76;51605;-79
2024/03/04 02:18:58;;;;;;;;;;;;;;;20.80;53.68;99964.48;2339098;76;51498;-79
2024/03/04 02:22:00;;;;;;;;;;;;;;;20.80;53.69;99964.48;2342857;75;51049;-79
2024/03/04 02:25:03;;;;;;;;;;;;;;;20.81;53.62;99974.22;2338556;76;50905;-79
2024/03/04 02:28:06;;;;;;;;;;;;;;;20.80;53.67;99972.55;2338936;76;50455;-78
2024/03/04 02:31:07;;;;;;;;;;;;;;;20.80;53.64;99970.69;2338864;75;51504;-78
2024/03/04 02:34:09;;;;;;;;;;;;;;;20.81;53.51;99971.01;2343021;76;50950;-79
2024/03/04 02:37:11;;;;;;;;;;;;;;;20.81;53.53;99971.53;2340154;74;50896;-79
2024/03/04 02:40:13;;;;;;;;;;;;;;;20.82;53.51;99983.92;2338999;76;51680;-79
2024/03/04 02:43:15;;;;;;;;;;;;;;;20.81;53.50;99976.39;2343038;75;51386;-78
2024/03/04 02:46:18;;;;;;;;;;;;;;;20.81;53.48;99979.59;2343130;75;49623;-78
2024/03/04 02:49:20;;;;;;;;;;;;;;;20.79;53.50;99986.52;2339390;76;51566;-79
2024/03/04 02:52:21;;;;;;;;;;;;;;;20.81;53.41;99987.67;2340452;76;51416;-79
2024/03/04 02:55:23;;;;;;;;;;;;;;;20.80;53.50;99992.20;2339064;76;51494;-79
2024/03/04 02:58:27;;;;;;;;;;;;;;;20.81;53.50;99991.17;2342759;76;50688;-78
2024/03/04 03:01:28;;;;;;;;;;;;;;;20.81;53.46;99998.42;2342021;74;21804;-79
2024/03/04 03:04:30;;;;;;;;;;;;;;;20.82;53.42;99996.02;2343680;75;50356;-80
2024/03/04 03:07:31;;;;;;;;;;;;;;;20.81;53.38;100004.62;2339414;76;50294;-79
2024/03/04 03:10:33;;;;;;;;;;;;;;;20.81;53.40;100003.27;2343564;76;49566;-81
2024/03/04 03:13:35;;;;;;;;;;;;;;;20.82;53.32;100005.44;2339507;76;49931;-80
2024/03/04 03:16:36;;;;;;;;;;;;;;;20.81;53.33;100004.62;2339318;74;50370;-80
2024/03/04 03:19:38;;;;;;;;;;;;;;;20.81;53.29;100016.72;2339450;76;50004;-79
2024/03/04 03:22:40;;;;;;;;;;;;;;;20.81;53.24;100018.59;2343451;75;50074;-81
2024/03/04 03:25:41;;;;;;;;;;;;;;;20.81;53.24;100015.90;2339250;76;50369;-78
2024/03/04 03:28:43;;;;;;;;;;;;;;;20.80;53.32;100021.77;2339103;74;50703;-80
2024/03/04 03:31:44;;;;;;;;;;;;;;;20.81;53.33;100028.81;2338981;74;50270;-79
2024/03/04 03:34:46;;;;;;;;;;;;;;;20.81;53.34;100028.00;2343377;75;51709;-78
2024/03/04 03:37:47;;;;;;;;;;;;;;;20.80;53.30;100021.77;2339090;76;50673;-78
2024/03/04 03:40:49;;;;;;;;;;;;;;;20.81;53.26;100035.54;2339108;76;51478;-79
2024/03/04 03:43:51;;;;;;;;;;;;;;;20.81;53.23;100036.06;2339044;76;51485;-79
2024/03/04 03:46:52;;;;;;;;;;;;;;;20.80;53.23;100041.12;2342961;76;50974;-80
2024/03/04 03:49:54;;;;;;;;;;;;;;;20.80;53.28;100039.77;2339558;76;51399;-80
2024/03/04 03:52:55;;;;;;;;;;;;;;;20.80;53.27;100042.46;2339667;76;50340;-79
2024/03/04 03:55:57;;;;;;;;;;;;;;;20.80;53.27;100049.19;2339340;76;50245;-80
2024/03/04 03:58:58;;;;;;;;;;;;;;;20.79;53.24;100043.52;2343490;75;49428;-79
2024/03/04 04:02:00;;;;;;;;;;;;;;;20.80;53.25;100049.19;2339379;76;50716;-78
2024/03/04 04:05:02;;;;;;;;;;;;;;;20.79;53.19;100047.55;2339328;76;50752;-81
2024/03/04 04:08:04;;;;;;;;;;;;;;;20.80;53.17;100051.88;2343551;75;50991;-78
2024/03/04 04:11:06;;;;;;;;;;;;;;;20.78;53.12;100056.13;2343739;75;49625;-79
2024/03/04 04:14:07;;;;;;;;;;;;;;;20.78;53.08;100061.52;2339512;76;50333;-81
2024/03/04 04:17:09;;;;;;;;;;;;;;;20.78;53.08;100056.13;2339363;76;50473;-78
2024/03/04 04:20:11;;;;;;;;;;;;;;;20.78;53.04;100066.89;2339310;76;50901;-79
2024/03/04 04:23:13;;;;;;;;;;;;;;;20.78;53.02;100066.04;2343584;75;50050;-79
2024/03/04 04:26:24;;;;;;;;;;;;;;;20.77;53.00;100066.56;2339337;76;51488;-80
2024/03/04 04:29:25;;;;;;;;;;;;;;;20.78;53.02;100070.07;2343642;75;50805;-78
2024/03/04 04:32:27;;;;;;;;;;;;;;;20.77;53.07;100078.66;2339310;76;51442;-79
2024/03/04 04:35:29;;;;;;;;;;;;;;;20.78;53.07;100071.42;2342997;75;49997;-80
2024/03/04 04:38:30;;;;;;;;;;;;;;;20.77;53.03;100077.32;2343316;75;49608;-79
2024/03/04 04:41:33;;;;;;;;;;;;;;;20.77;53.03;100076.50;2343586;75;50175;-79
2024/03/04 04:44:35;;;;;;;;;;;;;;;20.77;53.00;100083.22;2339471;76;50640;-79
2024/03/04 04:47:37;;;;;;;;;;;;;;;20.76;52.98;100074.34;2343284;75;52457;-80
2024/03/04 04:50:38;;;;;;;;;;;;;;;20.76;53.00;100078.89;2339236;76;50345;-79
2024/03/04 04:53:40;;;;;;;;;;;;;;;20.76;52.95;100081.58;2343198;75;51470;-79
2024/03/04 04:56:42;;;;;;;;;;;;;;;20.75;52.94;100082.08;2339232;76;50584;-79
2024/03/04 04:59:43;;;;;;;;;;;;;;;20.76;52.93;100089.65;2317583;76;50880;-79
2024/03/04 05:02:45;;;;;;;;;;;;;;;20.75;52.92;100083.95;2339588;75;51365;-79
2024/03/04 05:05:46;;;;;;;;;;;;;;;20.76;52.85;100096.38;2339295;76;50700;-79
2024/03/04 05:08:48;;;;;;;;;;;;;;;20.75;52.87;100092.02;2343611;75;50594;-81
2024/03/04 05:11:50;;;;;;;;;;;;;;;20.75;52.79;100090.66;2343538;75;50040;-79
2024/03/04 05:14:51;;;;;;;;;;;;;;;20.75;52.79;100093.36;2339526;76;50379;-80
2024/03/04 05:17:55;;;;;;;;;;;;;;;20.74;52.76;100091.72;2339421;76;50334;-79
2024/03/04 05:20:56;;;;;;;;;;;;;;;20.74;52.74;100095.75;2339842;76;24322;-81
2024/03/04 05:23:58;;;;;;;;;;;;;;;20.74;52.75;100094.41;2343585;75;51712;-80
2024/03/04 05:26:59;;;;;;;;;;;;;;;20.74;52.71;100100.60;2339301;75;51631;-79
2024/03/04 05:30:01;;;;;;;;;;;;;;;20.73;52.68;100096.27;2339371;76;51550;-80
2024/03/04 05:33:03;;;;;;;;;;;;;;;20.73;52.76;100098.11;2336905;75;51412;-80
2024/03/04 05:36:08;;;;;;;;;;;;;;;20.74;52.72;100102.47;2315663;76;49623;-80
2024/03/04 05:39:10;;;;;;;;;;;;;;;20.74;52.61;100100.60;2342555;75;22478;-79
2024/03/04 05:42:11;;;;;;;;;;;;;;;20.74;52.63;100098.44;2333330;76;51503;-78
2024/03/04 05:45:13;;;;;;;;;;;;;;;20.75;52.61;100105.45;2333536;76;51385;-79
2024/03/04 05:48:14;;;;;;;;;;;;;;;20.74;52.60;100105.98;2342868;76;51098;-79
2024/03/04 05:51:16;;;;;;;;;;;;;;;20.74;52.54;100115.39;2333798;76;50201;-82
2024/03/04 05:54:18;;;;;;;;;;;;;;;20.74;52.51;100115.39;2335870;75;49123;-82
2024/03/04 05:57:19;;;;;;;;;;;;;;;20.75;52.51;100117.03;2330304;76;50693;-82
2024/03/04 06:00:21;;;;;;;;;;;;;;;20.75;52.61;100126.97;2300429;76;50906;-84
2024/03/04 06:03:22;;;;;;;;;;;;;;;20.76;52.56;100120.56;2330277;75;50647;-83
2024/03/04 06:06:24;;;;;;;;;;;;;;;20.75;52.72;100131.81;2330419;76;52177;-83
2024/03/04 06:09:26;;;;;;;;;;;;;;;20.76;53.37;100125.95;2330750;76;51069;-85
2024/03/04 06:12:28;;;;;;;;;;;;;;;20.75;53.76;100118.37;2357179;75;50006;-83
2024/03/04 06:15:30;;;;;;;;;;;;;;;20.77;53.81;100129.75;2330564;76;50517;-82
2024/03/04 06:18:32;;;;;;;;;;;;;;;20.78;54.03;100134.11;2330526;76;51336;-81
2024/03/04 06:21:35;;;;;;;;;;;;;;;20.80;54.23;100140.60;2330595;76;51496;-83
2024/03/04 06:24:36;;;;;;;;;;;;;;;20.83;54.46;100153.13;2330469;76;22315;-82
2024/03/04 06:27:38;;;;;;;;;;;;;;;20.81;54.80;100144.44;2329645;76;51366;-81
2024/03/04 06:30:41;;;;;;;;;;;;;;;20.86;54.74;100151.36;2353641;75;50044;-83
2024/03/04 06:33:42;;;;;;;;;;;;;;;20.90;54.86;100151.75;2340584;75;51485;-82
2024/03/04 06:36:44;;;;;;;;;;;;;;;20.91;54.93;100148.54;2322182;75;49549;-83
2024/03/04 06:39:45;;;;;;;;;;;;;;;20.92;55.11;100156.94;2352474;75;51395;-83
2024/03/04 06:42:47;;;;;;;;;;;;;;;20.94;55.03;100158.90;2352265;75;50590;-82
2024/03/04 06:45:49;;;;;;;;;;;;;;;20.93;54.87;100163.42;2351936;75;50400;-82
2024/03/04 06:48:51;;;;;;;;;;;;;;;20.93;54.90;100163.42;2296024;75;50855;-81
2024/03/04 06:51:52;;;;;;;;;;;;;;;20.94;54.94;100164.28;2322023;75;51536;-82
2024/03/04 06:54:54;;;;;;;;;;;;;;;20.96;54.88;100168.41;2351844;75;51411;-79
2024/03/04 06:57:56;;;;;;;;;;;;;;;20.95;54.67;100173.98;2351742;75;51807;-81
2024/03/04 07:00:58;;;;;;;;;;;;;;;20.95;54.74;100174.81;2361262;75;51449;-83
2024/03/04 07:03:59;;;;;;;;;;;;;;;20.97;54.68;100176.77;2352042;75;51472;-83
2024/03/04 07:07:01;;;;;;;;;;;;;;;20.95;54.74;100178.02;2351993;75;51450;-80
2024/03/04 07:10:03;;;;;;;;;;;;;;;20.97;55.20;100172.74;2352483;75;51455;-82
2024/03/04 07:13:04;;;;;;;;;;;;;;;20.98;55.09;100177.07;2334354;75;49458;-82
2024/03/04 07:16:07;;;;;;;;;;;;;;;20.98;54.87;100182.98;2352517;75;51398;-82
2024/03/04 07:19:09;;;;;;;;;;;;;;;20.97;54.93;100188.06;2351599;74;51095;-82
2024/03/04 07:22:10;;;;;;;;;;;;;;;21.01;55.01;100190.62;2394457;74;50684;-82
2024/03/04 07:25:12;;;;;;;;;;;;;;;20.99;54.76;100191.34;2336686;74;50032;-82
2024/03/04 07:28:14;;;;;;;;;;;;;;;20.98;54.77;100191.86;2393920;74;50697;-82
2024/03/04 07:31:15;;;;;;;;;;;;;;;20.97;54.71;100194.26;2393702;74;51165;-82
2024/03/04 07:34:17;;;;;;;;;;;;;;;20.97;54.70;100192.91;2373097;74;50597;-82
2024/03/04 07:37:19;;;;;;;;;;;;;;;20.99;54.73;100196.23;2324604;75;51153;-80
2024/03/04 07:40:20;;;;;;;;;;;;;;;20.99;54.69;100194.88;2352142;75;50680;-82
2024/03/04 07:43:22;;;;;;;;;;;;;;;20.98;54.68;100202.63;2352243;75;50676;-83
2024/03/04 07:46:23;;;;;;;;;;;;;;;21.01;54.66;100200.03;2352133;75;51404;-81
2024/03/04 07:49:25;;;;;;;;;;;;;;;21.00;54.57;100206.46;2324538;75;50930;-82
2024/03/04 07:52:27;;;;;;;;;;;;;;;21.01;54.52;100214.83;2352261;75;51332;-83
2024/03/04 07:55:28;;;;;;;;;;;;;;;21.02;54.42;100215.16;2352371;75;50386;-83
2024/03/04 07:58:30;;;;;;;;;;;;;;;21.02;54.40;100215.16;2352544;75;50065;-83
2024/03/04 08:01:31;;;;;;;;;;;;;;;21.00;54.40;100219.38;2298447;75;51049;-82
2024/03/04 08:04:33;;;;;;;;;;;;;;;21.00;54.41;100217.22;2352423;75;50671;-82
2024/03/04 08:07:36;;;;;;;;;;;;;;;21.02;54.39;100224.57;2352103;75;50967;-82
2024/03/04 08:10:38;;;;;;;;;;;;;;;21.02;54.34;100223.22;2352272;75;51422;-82
2024/03/04 08:13:39;;;;;;;;;;;;;;;21.02;54.33;100221.88;2324302;75;50952;-83
2024/03/04 08:16:41;;;;;;;;;;;;;;;21.03;54.30;100228.90;2352123;75;50700;-83
2024/03/04 08:19:42;;;;;;;;;;;;;;;21.02;54.23;100226.73;2352199;75;51422;-82
2024/03/04 08:22:44;;;;;;;;;;;;;;;21.02;54.21;100232.11;2352327;75;50702;-83
2024/03/04 08:25:46;;;;;;;;;;;;;;;21.02;54.00;100236.15;2324588;75;49435;-83
2024/03/04 08:28:47;;;;;;;;;;;;;;;21.04;53.98;100248.88;2349099;75;50358;-82
2024/03/04 08:31:49;;;;;;;;;;;;;;;21.05;53.93;100245.14;2315480;76;50511;-82
2024/03/04 08:34:51;;;;;;;;;;;;;;;21.12;53.59;100253.21;2311146;76;51506;-81
2024/03/04 08:37:53;;;;;;;;;;;;;;;21.16;53.61;100260.33;2305650;76;52334;-82
2024/03/04 08:40:54;;;;;;;;;;;;;;;21.17;53.52;100258.80;2339650;76;51489;-84
2024/03/04 08:43:56;;;;;;;;;;;;;;;21.19;53.58;100258.04;2339222;76;50630;-82
2024/03/04 08:46:57;;;;;;;;;;;;;;;21.19;53.58;100268.80;2339555;76;51478;-84
2024/03/04 08:50:00;;;;;;;;;;;;;;;21.20;53.36;100272.34;2305217;76;50941;-81
2024/03/04 08:53:02;;;;;;;;;;;;;;;21.20;53.60;100270.48;2339598;76;50982;-83
2024/03/04 08:56:06;;;;;;;;;;;;;;;21.23;53.44;100281.34;2306401;76;50659;-83
2024/03/04 08:59:08;;;;;;;;;;;;;;;21.24;53.67;100282.98;2306513;76;50760;-81
2024/03/04 09:02:10;;;;;;;;;;;;;;;21.23;53.46;100275.95;2304477;76;52308;-82
2024/03/04 09:05:12;;;;;;;;;;;;;;;21.25;53.58;100280.61;2339305;76;51587;-81
2024/03/04 09:08:13;;;;;;;;;;;;;;;21.26;53.51;100280.91;2305094;76;51742;-81
2024/03/04 09:11:15;;;;;;;;;;;;;;;21.30;53.64;100277.59;2339630;76;52297;-82
2024/03/04 09:14:16;;;;;;;;;;;;;;;21.34;53.85;100283.38;2304854;76;50042;-81
2024/03/04 09:17:18;;;;;;;;;;;;;;;21.35;53.62;100289.09;2304385;76;49282;-82
2024/03/04 09:20:19;;;;;;;;;;;;;;;21.38;53.75;100286.49;2338998;75;50373;-80
2024/03/04 09:23:21;;;;;;;;;;;;;;;21.37;53.77;100290.20;2304392;74;50356;-80
2024/03/04 09:26:23;;;;;;;;;;;;;;;21.35;53.45;100281.50;2325079;74;50012;-81
2024/03/04 09:29:24;;;;;;;;;;;;;;;21.32;53.22;100286.79;2315776;74;50214;-80
2024/03/04 09:32:26;;;;;;;;;;;;;;;21.30;53.53;100287.55;2348835;74;50197;-80
2024/03/04 09:35:28;;;;;;;;;;;;;;;21.28;53.20;100292.30;2336275;74;51392;-80
2024/03/04 09:38:30;;;;;;;;;;;;;;;21.28;53.80;100300.38;2303127;76;51982;-80
2024/03/04 09:41:31;;;;;;;;;;;;;;;21.27;53.90;100299.55;2309605;75;50703;-81
2024/03/04 09:44:33;;;;;;;;;;;;;;;21.27;54.18;100301.39;2338804;75;51368;-81
2024/03/04 09:47:34;;;;;;;;;;;;;;;21.25;54.41;100294.07;2332652;76;50758;-83
2024/03/04 09:50:36;;;;;;;;;;;;;;;21.26;54.42;100299.75;2301405;76;50112;-81
2024/03/04 09:53:38;;;;;;;;;;;;;;;21.26;54.33;100309.17;2330409;76;52448;-81
2024/03/04 09:56:39;;;;;;;;;;;;;;;21.27;54.09;100315.70;2331448;75;51381;-82
2024/03/04 09:59:41;;;;;;;;;;;;;;;21.31;54.10;100313.41;2331187;75;50404;-81
2024/03/04 10:02:43;;;;;;;;;;;;;;;21.30;54.06;100313.92;2302018;76;51627;-81
2024/03/04 10:05:45;;;;;;;;;;;;;;;21.28;53.88;100322.72;2331847;75;50408;-82
2024/03/04 10:08:47;;;;;;;;;;;;;;;21.29;54.23;100320.33;2332419;76;50749;-82
2024/03/04 10:11:48;;;;;;;;;;;;;;;21.30;54.83;100321.18;2332868;75;50637;-83
2024/03/04 10:14:58;;;;;;;;;;;;;;;21.29;54.80;100323.55;2303156;76;50873;-78
2024/03/04 10:18:01;;;;;;;;;;;;;;;21.30;54.84;100328.73;2319991;76;50124;-82
2024/03/04 10:21:03;;;;;;;;;;;;;;;21.30;54.81;100319.83;2329976;76;50544;-80
2024/03/04 10:24:09;;;;;;;;;;;;;;;21.31;54.80;100325.52;2302509;76;51557;-81
2024/03/04 10:27:10;;;;;;;;;;;;;;;21.31;54.75;100328.20;2302706;75;50182;-81
2024/03/04 10:30:13;;;;;;;;;;;;;;;21.30;54.62;100334.64;2303338;76;51566;-82
2024/03/04 10:33:15;;;;;;;;;;;;;;;21.29;54.54;100331.09;2332956;75;51692;-82
2024/03/04 10:36:17;;;;;;;;;;;;;;;21.29;54.39;100328.92;2307095;76;50419;-82
2024/03/04 10:39:19;;;;;;;;;;;;;;;21.28;54.24;100333.48;2306788;76;49776;-82
2024/03/04 10:42:20;;;;;;;;;;;;;;;21.27;54.17;100329.16;2307931;76;51633;-81
2024/03/04 10:45:22;;;;;;;;;;;;;;;21.27;54.10;100330.50;2341818;75;51584;-82
2024/03/04 10:48:24;;;;;;;;;;;;;;;21.27;54.02;100333.69;2342940;76;51552;-81
2024/03/04 10:51:28;;;;;;;;;;;;;;;21.27;54.00;100335.03;2307121;76;51192;-82
2024/03/04 10:54:28;;;;;;;;;;;;;;;21.26;54.09;100340.11;2340812;76;22420;-81
2024/03/04 10:57:31;;;;;;;;;;;;;;;21.25;54.27;100340.64;2305174;76;50251;-81
2024/03/04 11:00:32;;;;;;;;;;;;;;;21.25;54.42;100339.81;2305404;76;50761;-81
2024/03/04 11:03:34;;;;;;;;;;;;;;;21.27;55.02;100345.80;2306093;76;52425;-83
2024/03/04 11:06:36;;;;;;;;;;;;;;;21.26;54.83;100346.84;2340828;75;51501;-82
2024/03/04 11:09:41;;;;;;;;;;;;;;;21.27;55.29;100343.95;2340065;75;51497;-82
2024/03/04 11:12:44;;;;;;;;;;;;;;;21.28;55.58;100344.77;2340603;75;50752;-83
2024/03/04 11:15:58;;;;;;;;;;;;;;;21.28;55.42;100346.94;2304971;76;50991;-81
2024/03/04 11:19:04;;;;;;;;;;;;;;;21.27;55.57;100338.58;2340661;76;50461;-81
2024/03/04 11:22:05;;;;;;;;;;;;;;;21.29;55.35;100341.86;2355205;74;51552;-81
2024/03/04 11:25:07;;;;;;;;;;;;;;;21.31;55.35;100344.35;2381845;74;50387;-81
2024/03/04 11:28:09;;;;;;;;;;;;;;;21.30;55.25;100350.27;2346572;74;50660;-82
2024/03/04 11:31:11;;;;;;;;;;;;;;;21.31;55.10;100353.77;2381350;74;51538;-82
2024/03/04 11:34:13;;;;;;;;;;;;;;;21.28;55.03;100349.63;2381999;74;50056;-80
2024/03/04 11:37:17;;;;;;;;;;;;;;;21.28;54.95;100347.47;2370828;74;50720;-81
2024/03/04 11:40:28;;;;;;;;;;;;;;;21.27;54.85;100352.03;2310886;76;49670;-82
2024/03/04 11:43:41;;;;;;;;;;;;;;;21.27;54.90;100350.68;2304001;76;22366;-82
2024/03/04 11:46:43;;;;;;;;;;;;;;;21.28;54.89;100351.50;2333172;76;50749;-83
2024/03/04 11:49:44;;;;;;;;;;;;;;;21.28;54.93;100351.50;2333484;76;50719;-83
2024/03/04 11:52:47;;;;;;;;;;;;;;;21.30;54.91;100351.60;2330625;76;51355;-83
2024/03/04 11:55:49;;;;;;;;;;;;;;;21.32;54.97;100359.45;2326424;76;50733;-82
2024/03/04 11:58:51;;;;;;;;;;;;;;;21.33;54.97;100358.95;2326123;76;50664;-81
2024/03/04 12:01:53;;;;;;;;;;;;;;;21.33;54.80;100348.19;2326531;76;51576;-83
2024/03/04 12:04:55;;;;;;;;;;;;;;;21.34;55.36;100344.45;2337420;75;50415;-81
2024/03/04 12:07:56;;;;;;;;;;;;;;;21.35;55.38;100337.53;2347836;74;49716;-81
2024/03/04 12:10:58;;;;;;;;;;;;;;;21.37;54.82;100339.47;2348368;74;49910;-81
2024/03/04 12:14:00;;;;;;;;;;;;;;;21.38;54.96;100338.98;2341906;74;50725;-83
2024/03/04 12:17:02;;;;;;;;;;;;;;;21.39;54.93;100347.38;2324449;74;50934;-83
2024/03/04 12:20:03;;;;;;;;;;;;;;;21.41;55.01;100343.44;2319906;74;52306;-81
2024/03/04 12:23:05;;;;;;;;;;;;;;;21.42;54.87;100335.66;2341383;74;52010;-83
2024/03/04 12:26:12;;;;;;;;;;;;;;;21.42;54.95;100350.47;2340521;74;51520;-83
2024/03/04 12:29:14;;;;;;;;;;;;;;;21.42;55.01;100337.01;2348432;74;51354;-82
2024/03/04 12:32:16;;;;;;;;;;;;;;;21.43;55.11;100345.41;2358500;74;51479;-82
2024/03/04 12:35:25;;;;;;;;;;;;;;;21.44;55.05;100330.91;2347507;74;51698;-82
2024/03/04 12:38:26;;;;;;;;;;;;;;;21.45;54.92;100334.41;2318243;74;22459;-81
2024/03/04 12:41:27;;;;;;;;;;;;;;;21.46;54.82;100335.56;2346564;74;49799;-82
2024/03/04 12:44:29;;;;;;;;;;;;;;;21.50;54.23;100337.30;2347910;74;49577;-81
2024/03/04 12:47:31;;;;;;;;;;;;;;;21.49;54.63;100339.17;2347349;74;50731;-80
2024/03/04 12:50:32;;;;;;;;;;;;;;;21.55;53.85;100338.03;2347118;74;51703;-81
2024/03/04 12:53:34;;;;;;;;;;;;;;;21.55;54.24;100339.38;2350264;74;51533;-82
2024/03/04 12:56:36;;;;;;;;;;;;;;;21.51;54.43;100338.45;2306201;74;50142;-83
2024/03/04 12:59:39;;;;;;;;;;;;;;;21.52;54.58;100329.33;2311453;76;50416;-83
2024/03/04 13:02:44;;;;;;;;;;;;;;;21.52;54.67;100337.41;2344457;74;50229;-82
2024/03/04 13:05:45;;;;;;;;;;;;;;;21.53;54.67;100333.70;2348012;74;52415;-83
2024/03/04 13:08:47;;;;;;;;;;;;;;;21.55;54.64;100337.50;2344561;74;50066;-82
2024/03/04 13:11:52;;;;;;;;;;;;;;;21.56;54.56;100345.91;2356308;74;52093;-82
2024/03/04 13:14:52;;;;;;;;;;;;;;;21.57;54.66;100330.58;2349804;74;22987;-82
2024/03/04 13:17:53;;;;;;;;;;;;;;;21.58;54.33;100334.42;2346231;74;50363;-84
2024/03/04 13:20:55;;;;;;;;;;;;;;;21.60;54.61;100338.23;2312032;74;49656;-81
2024/03/04 13:23:58;;;;;;;;;;;;;;;21.61;54.37;100329.13;2337594;74;50385;-82
2024/03/04 13:27:00;;;;;;;;;;;;;;;21.60;54.32;100328.28;2309736;74;51611;-81
2024/03/04 13:30:05;;;;;;;;;;;;;;;21.62;54.28;100334.81;2348917;74;51404;-81
2024/03/04 13:33:07;;;;;;;;;;;;;;;21.62;54.14;100325.39;2335645;74;50437;-82
2024/03/04 13:36:08;;;;;;;;;;;;;;;21.61;54.11;100324.56;2313974;74;50725;-83
2024/03/04 13:39:10;;;;;;;;;;;;;;;21.60;54.05;100322.89;2357322;74;50305;-82
2024/03/04 13:42:12;;;;;;;;;;;;;;;21.61;53.87;100321.87;2351643;74;51464;-82
2024/03/04 13:45:14;;;;;;;;;;;;;;;21.59;53.91;100318.56;2358498;74;51307;-80
2024/03/04 13:48:15;;;;;;;;;;;;;;;21.58;53.96;100325.48;2330463;74;50272;-82
2024/03/04 13:51:17;;;;;;;;;;;;;;;21.58;53.84;100329.03;2358075;74;50398;-83
2024/03/04 13:54:19;;;;;;;;;;;;;;;21.58;53.79;100331.72;2351891;75;50719;-82
2024/03/04 13:57:20;;;;;;;;;;;;;;;21.58;53.90;100330.38;2321510;75;49941;-81
2024/03/04 14:00:22;;;;;;;;;;;;;;;21.58;53.74;100336.26;2352014;75;51468;-82
2024/03/04 14:03:24;;;;;;;;;;;;;;;21.57;53.76;100331.92;2322519;75;51210;-80
2024/03/04 14:06:25;;;;;;;;;;;;;;;21.57;53.76;100339.48;2352619;75;50686;-83
2024/03/04 14:09:29;;;;;;;;;;;;;;;21.57;53.85;100337.30;2322593;75;49552;-84
2024/03/04 14:12:30;;;;;;;;;;;;;;;21.55;53.52;100330.78;2352548;75;24612;-84
2024/03/04 14:15:32;;;;;;;;;;;;;;;21.56;53.30;100331.63;2352063;75;51542;-82
2024/03/04 14:18:33;;;;;;;;;;;;;;;21.57;52.50;100342.16;2352150;75;50361;-82
2024/03/04 14:21:35;;;;;;;;;;;;;;;21.59;52.12;100347.35;2296051;75;51245;-83
2024/03/04 14:24:36;;;;;;;;;;;;;;;21.55;52.88;100352.84;2321611;75;50079;-83
2024/03/04 14:27:38;;;;;;;;;;;;;;;21.55;51.88;100348.27;2321605;75;50463;-83
2024/03/04 14:30:40;;;;;;;;;;;;;;;21.53;52.27;100348.50;2352151;75;51499;-83
2024/03/04 14:33:42;;;;;;;;;;;;;;;21.50;52.59;100340.85;2322340;75;49333;-83
2024/03/04 14:36:43;;;;;;;;;;;;;;;21.46;53.07;100346.33;2349479;75;50253;-84
2024/03/04 14:39:45;;;;;;;;;;;;;;;21.46;53.15;100353.59;2339508;76;50750;-83
2024/03/04 14:42:47;;;;;;;;;;;;;;;21.45;53.14;100346.03;2339327;75;50190;-82
2024/03/04 14:45:48;;;;;;;;;;;;;;;21.46;53.12;100342.82;2304853;76;49550;-84
2024/03/04 14:48:50;;;;;;;;;;;;;;;21.46;53.22;100348.20;2339674;76;51461;-85
2024/03/04 14:51:51;;;;;;;;;;;;;;;21.47;52.62;100369.52;2340108;76;51448;-85
2024/03/04 14:54:53;;;;;;;;;;;;;;;21.20;49.84;100370.55;2347588;74;51752;-82
2024/03/04 14:57:55;;;;;;;;;;;;;;;21.20;50.25;100367.86;2344498;74;49622;-81
2024/03/04 15:00:56;;;;;;;;;;;;;;;21.21;50.52;100354.19;2380440;74;50405;-83
2024/03/04 15:03:58;;;;;;;;;;;;;;;21.22;50.18;100353.66;2380003;74;50421;-83
2024/03/04 15:06:59;;;;;;;;;;;;;;;21.23;50.36;100351.30;2344236;74;50666;-84
2024/03/04 15:10:01;;;;;;;;;;;;;;;21.25;50.88;100353.27;2344450;74;50974;-84
2024/03/04 15:13:03;;;;;;;;;;;;;;;21.25;50.91;100354.61;2344737;74;50693;-84
2024/03/04 15:16:05;;;;;;;;;;;;;;;21.26;51.15;100357.61;2381367;74;50905;-83
2024/03/04 15:19:06;;;;;;;;;;;;;;;21.27;51.31;100360.59;2345659;74;51527;-82
2024/03/04 15:22:08;;;;;;;;;;;;;;;21.26;51.41;100365.16;2346261;74;50628;-84
2024/03/04 15:25:10;;;;;;;;;;;;;;;21.28;51.66;100355.54;2380111;74;49937;-84
2024/03/04 15:28:12;;;;;;;;;;;;;;;21.27;51.78;100354.72;2380248;74;51535;-82
2024/03/04 15:31:14;;;;;;;;;;;;;;;21.29;51.97;100362.04;2380717;74;51658;-83
2024/03/04 15:34:15;;;;;;;;;;;;;;;21.28;52.25;100363.61;2344904;74;50234;-81
2024/03/04 15:37:17;;;;;;;;;;;;;;;21.29;52.34;100365.25;2380369;74;50864;-83